createdAt,value
2022-08-28T00:01:45.328Z,98147.97
2022-08-28T00:04:14.019Z,98150.38
2022-08-28T00:06:42.607Z,98148.53
2022-08-28T00:09:11.328Z,98149.31
2022-08-28T00:11:40.433Z,98150.13
2022-08-28T00:14:11.429Z,98151.75
2022-08-28T00:16:42.193Z,98156.97
2022-08-28T00:19:11.389Z,98149.56
2022-08-28T00:21:40.023Z,98156.50
2022-08-28T00:24:09.068Z,98149.09
2022-08-28T00:26:54.833Z,98148.28
2022-08-28T00:29:23.433Z,98162.34
2022-08-28T00:31:54.047Z,98161.53
2022-08-28T00:34:29.661Z,98164.19
2022-08-28T00:37:02.281Z,98159.16
2022-08-28T00:39:32.285Z,98160.75
2022-08-28T00:42:01.114Z,98160.75
2022-08-28T00:44:30.494Z,98157.28
2022-08-28T00:47:02.029Z,98161.81
2022-08-28T00:49:35.918Z,98155.44
2022-08-28T00:52:12.173Z,98158.09
2022-08-28T00:54:59.415Z,98156.72
2022-08-28T00:57:33.686Z,98157.53
2022-08-28T01:00:03.485Z,98160.69
2022-08-28T01:02:33.718Z,98158.84
2022-08-28T01:05:02.338Z,98152.72
2022-08-28T01:07:31.883Z,98151.09
2022-08-28T01:10:01.172Z,98150.88
2022-08-28T01:12:34.080Z,98158.50
2022-08-28T01:15:14.087Z,98162.22
2022-08-28T01:17:51.528Z,98160.28
2022-08-28T01:20:24.624Z,98158.97
2022-08-28T01:23:05.707Z,98160.84
2022-08-28T01:25:39.620Z,98158.19
2022-08-28T01:28:13.024Z,98162.22
2022-08-28T01:30:50.548Z,98164.28
2022-08-28T01:33:19.721Z,98171.22
2022-08-28T01:35:57.632Z,98169.59
2022-08-28T01:38:27.810Z,98164.84
2022-08-28T01:40:58.486Z,98160.59
2022-08-28T01:43:29.758Z,98158.44
2022-08-28T01:46:06.146Z,98164.78
2022-08-28T01:48:39.044Z,98160.97
2022-08-28T01:51:08.958Z,98159.41
2022-08-28T01:53:37.784Z,98157.56
2022-08-28T01:56:14.095Z,98159.94
2022-08-28T01:58:43.463Z,98156.25
2022-08-28T02:01:14.209Z,98153.84
2022-08-28T02:03:44.964Z,98155.13
2022-08-28T02:06:16.753Z,98157.22
2022-08-28T02:08:45.689Z,98157.63
2022-08-28T02:11:15.903Z,98159.47
2022-08-28T02:13:46.054Z,98161.09
2022-08-28T02:16:20.272Z,98156.81
2022-08-28T02:18:50.156Z,98157.06
2022-08-28T02:21:18.672Z,98159.16
2022-08-28T02:23:48.427Z,98155.94
2022-08-28T02:26:18.634Z,98155.94
2022-08-28T02:28:48.520Z,98151.13
2022-08-28T02:31:17.275Z,98155.69
2022-08-28T02:33:47.532Z,98156.50
2022-08-28T02:36:18.128Z,98160.75
2022-08-28T02:38:49.086Z,98152.00
2022-08-28T02:41:20.737Z,98154.16
2022-08-28T02:43:50.136Z,98152.56
2022-08-28T02:46:18.798Z,98148.53
2022-08-28T02:48:48.122Z,98149.34
2022-08-28T02:51:16.733Z,98144.03
2022-08-28T02:53:45.287Z,98137.59
2022-08-28T02:56:14.181Z,98145.34
2022-08-28T02:58:44.285Z,98138.91
2022-08-28T03:01:14.173Z,98141.44
2022-08-28T03:03:44.046Z,98140.38
2022-08-28T03:06:14.083Z,98136.38
2022-08-28T03:08:44.524Z,98138.28
2022-08-28T03:11:13.817Z,98140.75
2022-08-28T03:13:44.610Z,98140.75
2022-08-28T03:16:13.809Z,98130.81
2022-08-28T03:18:42.464Z,98138.28
2022-08-28T03:21:12.469Z,98140.94
2022-08-28T03:23:41.500Z,98139.94
2022-08-28T03:26:13.785Z,98131.97
2022-08-28T03:28:48.491Z,98132.78
2022-08-28T03:31:22.240Z,98135.63
2022-08-28T03:34:25.593Z,98128.28
2022-08-28T03:36:54.403Z,98141.78
2022-08-28T03:39:23.116Z,98138.28
2022-08-28T03:41:53.864Z,98132.22
2022-08-28T03:44:25.388Z,98135.09
2022-08-28T03:46:55.937Z,98138.53
2022-08-28T03:49:26.846Z,98142.72
2022-08-28T03:51:57.724Z,98144.50
2022-08-28T03:54:30.650Z,98136.53
2022-08-28T03:57:00.375Z,98141.59
2022-08-28T03:59:35.463Z,98148.72
2022-08-28T04:02:04.655Z,98139.75
2022-08-28T04:04:34.815Z,98141.91
2022-08-28T04:07:05.446Z,98151.16
2022-08-28T04:09:34.773Z,98145.59
2022-08-28T04:12:04.832Z,98149.88
2022-08-28T04:14:36.283Z,98149.53
2022-08-28T04:17:06.841Z,98158.31
2022-08-28T04:19:38.330Z,98160.97
2022-08-28T04:22:14.716Z,98156.69
2022-08-28T04:24:46.150Z,98161.22
2022-08-28T04:27:16.656Z,98162.47
2022-08-28T04:29:48.264Z,98172.84
2022-08-28T04:32:17.726Z,98165.72
2022-08-28T04:34:46.868Z,98176.00
2022-08-28T04:37:18.226Z,98171.16
2022-08-28T04:39:46.818Z,98167.13
2022-08-28T04:42:16.278Z,98170.97
2022-08-28T04:44:46.889Z,98168.63
2022-08-28T04:47:15.450Z,98169.22
2022-08-28T04:49:44.355Z,98168.75
2022-08-28T04:52:16.051Z,98172.44
2022-08-28T04:54:44.873Z,98176.16
2022-08-28T04:57:13.492Z,98177.50
2022-08-28T04:59:45.073Z,98177.50
2022-08-28T05:02:15.148Z,98178.53
2022-08-28T05:04:43.796Z,98179.34
2022-08-28T05:07:14.663Z,98186.28
2022-08-28T05:09:43.628Z,98187.84
2022-08-28T05:12:17.163Z,98187.84
2022-08-28T05:14:45.902Z,98197.69
2022-08-28T05:17:17.516Z,98193.66
2022-08-28T05:19:48.146Z,98200.00
2022-08-28T05:22:16.872Z,98195.25
2022-08-28T05:24:46.059Z,98196.06
2022-08-28T05:27:14.628Z,98204.25
2022-08-28T05:29:43.151Z,98201.59
2022-08-28T05:32:12.691Z,98200.78
2022-08-28T05:34:42.594Z,98200.47
2022-08-28T05:37:14.510Z,98205.53
2022-08-28T05:39:45.634Z,98203.69
2022-08-28T05:42:14.503Z,98203.44
2022-08-28T05:44:43.645Z,98202.19
2022-08-28T05:47:13.076Z,98212.31
2022-08-28T05:49:43.740Z,98215.50
2022-08-28T05:52:12.237Z,98215.84
2022-08-28T05:54:44.638Z,98212.97
2022-08-28T05:57:13.073Z,98214.00
2022-08-28T05:59:41.584Z,98213.44
2022-08-28T06:02:10.590Z,98220.91
2022-08-28T06:04:40.569Z,98216.16
2022-08-28T06:07:12.159Z,98221.16
2022-08-28T06:09:40.711Z,98218.28
2022-08-28T06:12:10.547Z,98224.38
2022-08-28T06:14:40.677Z,98223.09
2022-08-28T06:17:09.767Z,98224.47
2022-08-28T06:19:41.544Z,98226.88
2022-08-28T06:22:14.828Z,98229.09
2022-08-28T06:24:43.743Z,98234.41
2022-08-28T06:27:12.248Z,98232.28
2022-08-28T06:29:41.823Z,98234.72
2022-08-28T06:32:10.544Z,98237.38
2022-08-28T06:34:39.432Z,98234.47
2022-08-28T06:37:08.331Z,98239.31
2022-08-28T06:39:42.000Z,98237.94
2022-08-28T06:42:11.593Z,98244.63
2022-08-28T06:44:40.406Z,98244.38
2022-08-28T06:47:10.402Z,98245.19
2022-08-28T06:49:39.627Z,98248.63
2022-08-28T06:52:09.377Z,98252.09
2022-08-28T06:54:40.776Z,98259.00
2022-08-28T06:57:28.206Z,98253.25
2022-08-28T06:59:59.107Z,98250.66
2022-08-28T07:02:28.293Z,98245.13
2022-08-28T07:04:57.094Z,98241.66
2022-08-28T07:07:31.558Z,98247.28
2022-08-28T07:10:02.446Z,98250.16
2022-08-28T07:12:30.942Z,98260.78
2022-08-28T07:14:59.684Z,98262.97
2022-08-28T07:17:28.193Z,98269.66
2022-08-28T07:19:56.681Z,98270.69
2022-08-28T07:22:26.575Z,98265.59
2022-08-28T07:24:55.768Z,98275.75
2022-08-28T07:27:26.336Z,98269.72
2022-08-28T07:29:55.555Z,98261.84
2022-08-28T07:32:24.206Z,98267.50
2022-08-28T07:34:53.006Z,98272.22
2022-08-28T07:37:21.536Z,98272.81
2022-08-28T07:39:50.268Z,98265.94
2022-08-28T07:42:35.552Z,98276.66
2022-08-28T07:45:06.947Z,98279.41
2022-08-28T07:47:35.838Z,98276.75
2022-08-28T07:50:04.447Z,98269.00
2022-08-28T07:52:32.890Z,98277.84
2022-08-28T07:55:01.463Z,98280.81
2022-08-28T07:57:32.089Z,98279.47
2022-08-28T08:00:00.666Z,98282.22
2022-08-28T08:02:31.137Z,98290.25
2022-08-28T08:04:59.634Z,98282.06
2022-08-28T08:07:28.820Z,98286.06
2022-08-28T08:09:57.830Z,98283.97
2022-08-28T08:12:26.468Z,98281.06
2022-08-28T08:14:57.980Z,98281.41
2022-08-28T08:17:26.481Z,98284.94
2022-08-28T08:19:56.398Z,98287.38
2022-08-28T08:22:25.274Z,98284.31
2022-08-28T08:24:54.513Z,98280.19
2022-08-28T08:27:23.700Z,98277.34
2022-08-28T08:29:52.223Z,98280.31
2022-08-28T08:32:20.699Z,98287.31
2022-08-28T08:34:49.444Z,98283.09
2022-08-28T08:37:19.435Z,98281.81
2022-08-28T08:39:48.047Z,98291.22
2022-08-28T08:42:27.141Z,98292.09
2022-08-28T08:45:00.264Z,98290.06
2022-08-28T08:47:39.476Z,98285.84
2022-08-28T08:50:17.181Z,98288.81
2022-08-28T08:53:05.578Z,98291.47
2022-08-28T08:55:43.525Z,98283.19
2022-08-28T08:58:22.454Z,98288.81
2022-08-28T09:01:03.160Z,98294.13
2022-08-28T09:03:58.554Z,98280.91
2022-08-28T09:06:37.893Z,98286.06
2022-08-28T09:09:19.757Z,98285.88
2022-08-28T09:11:59.128Z,98285.66
2022-08-28T09:14:42.831Z,98289.22
2022-08-28T09:17:17.707Z,98287.38
2022-08-28T09:19:46.315Z,98276.00
2022-08-28T09:22:14.981Z,98283.47
2022-08-28T09:24:45.289Z,98294.13
2022-08-28T09:27:26.543Z,98298.41
2022-08-28T09:30:07.302Z,98311.72
2022-08-28T09:32:41.545Z,98310.72
2022-08-28T09:35:19.036Z,98294.44
2022-08-28T09:37:47.538Z,98313.66
2022-08-28T09:40:23.509Z,98304.38
2022-08-28T09:43:37.421Z,98304.69
2022-08-28T09:46:17.679Z,98312.22
2022-08-28T09:48:48.729Z,98301.66
2022-08-28T09:51:31.471Z,98295.06
2022-08-28T09:54:13.038Z,98297.78
2022-08-28T09:56:45.450Z,98296.25
2022-08-28T09:59:17.486Z,98296.31
2022-08-28T10:02:10.516Z,98299.03
2022-08-28T10:04:59.059Z,98302.75
2022-08-28T10:07:47.177Z,98306.47
2022-08-28T10:10:27.964Z,98298.75
2022-08-28T10:13:11.141Z,98300.63
2022-08-28T10:16:05.066Z,98296.41
2022-08-28T10:18:44.027Z,98288.47
2022-08-28T10:21:21.928Z,98300.22
2022-08-28T10:24:26.724Z,98288.00
2022-08-28T10:27:13.717Z,98292.31
2022-08-28T10:30:04.381Z,98294.72
2022-08-28T10:33:08.480Z,98291.78
2022-08-28T10:35:50.834Z,98297.13
2022-08-28T10:38:29.694Z,98285.41
2022-08-28T10:41:07.016Z,98283.84
2022-08-28T10:43:43.303Z,98283.59
2022-08-28T10:46:25.282Z,98290.84
2022-08-28T10:49:03.073Z,98287.13
2022-08-28T10:51:44.297Z,98290.41
2022-08-28T10:54:24.398Z,98289.88
2022-08-28T10:56:59.771Z,98298.44
2022-08-28T10:59:41.914Z,98296.06
2022-08-28T11:02:16.550Z,98304.88
2022-08-28T11:04:48.020Z,98297.16
2022-08-28T11:07:29.328Z,98286.78
2022-08-28T11:10:18.664Z,98296.41
2022-08-28T11:12:51.481Z,98295.06
2022-08-28T11:15:54.498Z,98295.91
2022-08-28T11:19:08.076Z,98291.13
2022-08-28T11:21:46.730Z,98282.88
2022-08-28T11:24:44.210Z,98285.28
2022-08-28T11:27:29.727Z,98282.66
2022-08-28T11:30:35.600Z,98289.66
2022-08-28T11:33:09.340Z,98288.59
2022-08-28T11:35:52.036Z,98286.47
2022-08-28T11:39:22.956Z,98286.22
2022-08-28T11:42:37.981Z,98290.75
2022-08-28T11:45:08.138Z,98286.47
2022-08-28T11:47:56.482Z,98288.63
2022-08-28T11:50:33.612Z,98290.22
2022-08-28T11:53:48.140Z,98288.88
2022-08-28T11:56:45.833Z,98295.03
2022-08-28T12:00:00.905Z,98292.38
2022-08-28T12:02:55.295Z,98292.91
2022-08-28T12:05:53.660Z,98292.13
2022-08-28T12:09:12.605Z,98288.38
2022-08-28T12:12:03.540Z,98290.22
2022-08-28T12:15:09.101Z,98269.41
2022-08-28T12:17:58.514Z,98274.75
2022-08-28T12:21:01.129Z,98284.34
2022-08-28T12:23:42.370Z,98281.16
2022-08-28T12:26:25.154Z,98280.88
2022-08-28T12:28:58.602Z,98283.31
2022-08-28T12:32:18.981Z,98275.28
2022-08-28T12:35:08.737Z,98280.88
2022-08-28T12:37:52.624Z,98277.66
2022-08-28T12:40:26.092Z,98284.88
2022-08-28T12:43:00.296Z,98295.59
2022-08-28T12:45:34.670Z,98285.97
2022-08-28T12:48:14.208Z,98288.38
2022-08-28T12:50:42.968Z,98292.13
2022-08-28T12:53:17.439Z,98283.53
2022-08-28T12:55:47.892Z,98284.34
2022-08-28T12:58:31.325Z,98277.44
2022-08-28T13:01:05.238Z,98281.94
2022-08-28T13:03:34.754Z,98275.28
2022-08-28T13:06:09.524Z,98272.63
2022-08-28T13:08:39.192Z,98272.34
2022-08-28T13:11:09.168Z,98273.41
2022-08-28T13:13:49.263Z,98265.66
2022-08-28T13:16:38.231Z,98269.13
2022-08-28T13:19:31.999Z,98266.44
2022-08-28T13:22:04.034Z,98256.25
2022-08-28T13:24:45.737Z,98258.63
2022-08-28T13:27:26.171Z,98248.16
2022-08-28T13:30:06.436Z,98247.88
2022-08-28T13:32:39.077Z,98250.56
2022-08-28T13:35:30.047Z,98251.63
2022-08-28T13:38:02.363Z,98244.38
2022-08-28T13:40:57.516Z,98235.81
2022-08-28T13:43:30.060Z,98237.75
2022-08-28T13:46:00.075Z,98235.97
2022-08-28T13:48:30.116Z,98238.31
2022-08-28T13:51:05.130Z,98234.31
2022-08-28T13:53:39.155Z,98238.66
2022-08-28T13:56:08.361Z,98237.97
2022-08-28T13:58:37.063Z,98241.50
2022-08-28T14:01:07.445Z,98239.13
2022-08-28T14:03:38.580Z,98242.88
2022-08-28T14:06:12.499Z,98239.13
2022-08-28T14:08:43.506Z,98231.59
2022-08-28T14:11:14.128Z,98237.44
2022-08-28T14:13:47.461Z,98227.22
2022-08-28T14:16:26.372Z,98241.66
2022-08-28T14:18:56.389Z,98225.06
2022-08-28T14:21:25.393Z,98229.06
2022-08-28T14:23:54.179Z,98216.66
2022-08-28T14:26:22.826Z,98210.72
2022-08-28T14:28:51.490Z,98223.34
2022-08-28T14:31:26.339Z,98213.72
2022-08-28T14:34:00.557Z,98210.97
2022-08-28T14:36:31.882Z,98222.16
2022-08-28T14:39:06.169Z,98216.53
2022-08-28T14:41:36.193Z,98219.22
2022-08-28T14:44:06.415Z,98213.63
2022-08-28T14:46:38.713Z,98214.69
2022-08-28T14:49:12.668Z,98219.00
2022-08-28T14:51:43.777Z,98209.63
2022-08-28T14:54:15.077Z,98211.69
2022-08-28T14:56:44.937Z,98213.44
2022-08-28T14:59:24.236Z,98206.41
2022-08-28T15:01:55.327Z,98214.97
2022-08-28T15:04:28.195Z,98212.66
2022-08-28T15:07:00.685Z,98217.69
2022-08-28T15:09:29.490Z,98210.41
2022-08-28T15:11:57.993Z,98204.94
2022-08-28T15:14:26.503Z,98205.31
2022-08-28T15:16:55.147Z,98199.56
2022-08-28T15:19:25.518Z,98211.22
2022-08-28T15:21:56.491Z,98215.44
2022-08-28T15:24:28.530Z,98219.63
2022-08-28T15:26:57.759Z,98221.16
2022-08-28T15:29:28.077Z,98221.75
2022-08-28T15:31:57.239Z,98216.00
2022-08-28T15:34:29.415Z,98208.97
2022-08-28T15:36:59.590Z,98219.44
2022-08-28T15:39:46.672Z,98214.78
2022-08-28T15:42:15.781Z,98205.66
2022-08-28T15:44:44.388Z,98207.75
2022-08-28T15:47:14.930Z,98204.56
2022-08-28T15:49:49.608Z,98205.66
2022-08-28T15:52:20.034Z,98202.38
2022-08-28T15:54:48.990Z,98205.78
2022-08-28T15:57:18.043Z,98210.97
2022-08-28T15:59:48.885Z,98215.00
2022-08-28T16:02:20.725Z,98212.59
2022-08-28T16:04:51.589Z,98213.75
2022-08-28T16:07:23.517Z,98216.44
2022-08-28T16:09:53.233Z,98214.13
2022-08-28T16:12:21.862Z,98217.19
2022-08-28T16:14:50.726Z,98214.03
2022-08-28T16:17:20.011Z,98208.81
2022-08-28T16:19:49.965Z,98204.00
2022-08-28T16:22:20.502Z,98210.22
2022-08-28T16:24:49.059Z,98212.44
2022-08-28T16:27:25.819Z,98207.16
2022-08-28T16:29:54.375Z,98207.28
2022-08-28T16:32:23.947Z,98211.06
2022-08-28T16:34:54.403Z,98213.75
2022-08-28T16:37:23.236Z,98213.75
2022-08-28T16:39:56.098Z,98209.75
2022-08-28T16:42:27.668Z,98219.25
2022-08-28T16:45:00.116Z,98218.22
2022-08-28T16:47:31.727Z,98211.59
2022-08-28T16:50:06.217Z,98210.34
2022-08-28T16:52:35.251Z,98219.22
2022-08-28T16:55:04.047Z,98209.63
2022-08-28T16:57:32.569Z,98209.09
2022-08-28T17:00:01.499Z,98211.84
2022-08-28T17:02:33.576Z,98218.59
2022-08-28T17:05:06.974Z,98217.53
2022-08-28T17:07:36.114Z,98217.56
2022-08-28T17:10:06.426Z,98210.94
2022-08-28T17:12:35.155Z,98216.59
2022-08-28T17:15:03.715Z,98221.72
2022-08-28T17:17:32.175Z,98220.16
2022-08-28T17:20:00.824Z,98226.13
2022-08-28T17:22:32.040Z,98216.78
2022-08-28T17:25:02.891Z,98224.81
2022-08-28T17:27:32.339Z,98221.63
2022-08-28T17:30:04.881Z,98229.97
2022-08-28T17:32:33.911Z,98233.16
2022-08-28T17:35:02.875Z,98222.75
2022-08-28T17:37:32.905Z,98231.84
2022-08-28T17:40:01.413Z,98228.63
2022-08-28T17:42:30.021Z,98235.06
2022-08-28T17:44:58.558Z,98235.63
2022-08-28T17:47:30.656Z,98228.16
2022-08-28T17:49:59.852Z,98233.81
2022-08-28T17:52:29.542Z,98229.78
2022-08-28T17:55:00.122Z,98239.47
2022-08-28T17:57:31.387Z,98235.97
2022-08-28T18:00:01.951Z,98238.94
2022-08-28T18:02:34.002Z,98237.59
2022-08-28T18:05:03.539Z,98239.19
2022-08-28T18:07:32.488Z,98237.34
2022-08-28T18:10:02.552Z,98238.94
2022-08-28T18:12:31.197Z,98246.41
2022-08-28T18:15:00.011Z,98252.28
2022-08-28T18:17:28.767Z,98247.50
2022-08-28T18:19:58.006Z,98253.88
2022-08-28T18:22:29.684Z,98251.50
2022-08-28T18:24:58.935Z,98254.97
2022-08-28T18:27:31.557Z,98264.03
2022-08-28T18:30:00.468Z,98264.31
2022-08-28T18:32:29.160Z,98265.38
2022-08-28T18:34:57.717Z,98268.81
2022-08-28T18:37:26.691Z,98281.09
2022-08-28T18:39:56.660Z,98280.78
2022-08-28T18:42:26.416Z,98285.31
2022-08-28T18:44:56.933Z,98287.69
2022-08-28T18:47:25.383Z,98291.38
2022-08-28T18:49:54.029Z,98294.84
2022-08-28T18:52:22.637Z,98294.84
2022-08-28T18:54:52.290Z,98301.22
2022-08-28T18:57:25.641Z,98308.91
2022-08-28T18:59:55.765Z,98299.28
2022-08-28T19:02:25.737Z,98308.06
2022-08-28T19:04:55.209Z,98307.72
2022-08-28T19:07:23.756Z,98310.94
2022-08-28T19:09:52.368Z,98317.59
2022-08-28T19:12:20.847Z,98314.03
2022-08-28T19:14:49.414Z,98319.66
2022-08-28T19:17:21.138Z,98318.53
2022-08-28T19:19:50.683Z,98321.16
2022-08-28T19:22:19.728Z,98327.00
2022-08-28T19:24:49.167Z,98338.19
2022-08-28T19:27:17.980Z,98330.66
2022-08-28T19:29:46.652Z,98327.16
2022-08-28T19:32:15.602Z,98333.47
2022-08-28T19:34:45.474Z,98330.03
2022-08-28T19:37:14.615Z,98328.66
2022-08-28T19:39:51.043Z,98329.97
2022-08-28T19:42:26.741Z,98328.84
2022-08-28T19:44:59.690Z,98337.00
2022-08-28T19:47:29.307Z,98340.50
2022-08-28T19:50:08.395Z,98341.28
2022-08-28T19:52:38.221Z,98346.03
2022-08-28T19:55:08.635Z,98348.56
2022-08-28T19:57:37.801Z,98351.81
2022-08-28T20:00:08.043Z,98344.28
2022-08-28T20:02:37.688Z,98351.97
2022-08-28T20:05:09.851Z,98354.63
2022-08-28T20:07:38.637Z,98349.50
2022-08-28T20:10:09.857Z,98354.72
2022-08-28T20:12:38.687Z,98351.16
2022-08-28T20:15:13.292Z,98354.84
2022-08-28T20:17:49.331Z,98360.59
2022-08-28T20:20:25.608Z,98364.31
2022-08-28T20:22:56.560Z,98370.69
2022-08-28T20:25:25.543Z,98373.34
2022-08-28T20:27:55.672Z,98375.94
2022-08-28T20:30:26.916Z,98383.59
2022-08-28T20:32:55.554Z,98384.38
2022-08-28T20:35:27.607Z,98385.81
2022-08-28T20:37:56.325Z,98383.59
2022-08-28T20:40:25.370Z,98387.28
2022-08-28T20:42:54.834Z,98393.59
2022-08-28T20:45:23.743Z,98390.13
2022-08-28T20:47:52.289Z,98387.06
2022-08-28T20:50:21.378Z,98383.31
2022-08-28T20:52:51.265Z,98383.78
2022-08-28T20:55:20.593Z,98390.88
2022-08-28T20:57:49.154Z,98388.31
2022-08-28T21:00:18.499Z,98390.97
2022-08-28T21:05:30.511Z,98394.03
2022-08-28T21:08:00.352Z,98399.28
2022-08-28T21:10:28.905Z,98403.44
2022-08-28T21:12:57.421Z,98405.06
2022-08-28T21:15:25.985Z,98412.72
2022-08-28T21:17:54.486Z,98417.25
2022-08-28T21:20:23.368Z,98412.50
2022-08-28T21:22:54.220Z,98414.59
2022-08-28T21:25:26.703Z,98414.88
2022-08-28T21:27:55.220Z,98408.66
2022-08-28T21:30:23.996Z,98411.88
2022-08-28T21:32:58.073Z,98415.81
2022-08-28T21:35:27.137Z,98411.06
2022-08-28T21:37:55.659Z,98411.09
2022-08-28T21:40:25.627Z,98420.81
2022-08-28T21:42:54.207Z,98418.38
2022-08-28T21:45:22.956Z,98422.66
2022-08-28T21:47:51.457Z,98430.09
2022-08-28T21:50:20.746Z,98425.59
2022-08-28T21:52:49.815Z,98426.06
2022-08-28T21:55:18.530Z,98431.38
2022-08-28T21:57:48.476Z,98430.56
2022-08-28T22:00:22.671Z,98434.50
2022-08-28T22:02:51.939Z,98430.69
2022-08-28T22:05:21.417Z,98437.69
2022-08-28T22:07:49.937Z,98432.38
2022-08-28T22:10:19.010Z,98434.59
2022-08-28T22:12:48.908Z,98434.72
2022-08-28T22:15:17.604Z,98442.91
2022-08-28T22:17:46.585Z,98440.84
2022-08-28T22:20:15.498Z,98447.66
2022-08-28T22:23:01.422Z,98447.28
2022-08-28T22:25:30.006Z,98449.59
2022-08-28T22:28:00.288Z,98444.78
2022-08-28T22:30:28.900Z,98451.78
2022-08-28T22:32:57.464Z,98447.66
2022-08-28T22:35:26.463Z,98448.56
2022-08-28T22:37:55.346Z,98449.38
2022-08-28T22:40:25.538Z,98443.63
2022-08-28T22:42:54.319Z,98449.25
2022-08-28T22:45:25.663Z,98450.28
2022-08-28T22:47:54.681Z,98442.88
2022-08-28T22:50:24.222Z,98450.69
2022-08-28T22:52:52.897Z,98448.25
2022-08-28T22:55:22.608Z,98457.00
2022-08-28T22:57:51.481Z,98445.84
2022-08-28T23:00:26.567Z,98452.16
2022-08-28T23:02:58.067Z,98448.34
2022-08-28T23:05:28.846Z,98456.28
2022-08-28T23:07:58.371Z,98454.91
2022-08-28T23:10:48.176Z,98457.97
2022-08-28T23:13:16.565Z,98466.22
2022-08-28T23:15:48.728Z,98455.22
2022-08-28T23:18:18.330Z,98455.97
2022-08-28T23:20:46.902Z,98462.59
2022-08-28T23:23:19.315Z,98456.28
2022-08-28T23:25:49.324Z,98450.16
2022-08-28T23:28:18.955Z,98460.53
2022-08-28T23:30:49.715Z,98457.97
2022-08-28T23:33:23.526Z,98453.25
2022-08-28T23:35:52.700Z,98456.44
2022-08-28T23:38:21.594Z,98454.09
2022-08-28T23:40:50.784Z,98448.72
2022-08-28T23:43:19.337Z,98450.91
2022-08-28T23:45:50.789Z,98449.53
2022-08-28T23:48:19.810Z,98451.16
2022-08-28T23:50:49.002Z,98434.09
2022-08-28T23:53:17.676Z,98436.38
2022-08-28T23:55:46.447Z,98448.00
2022-08-28T23:58:17.428Z,98438.00
